North Bay, New York
Current Conditions -  °F | °C
As of 12:20 AM on Sunday 26 Oct 2014 (Local Time) from KRME Reporting Station
Haze Haze  
Wind Chill: 47°   Ceiling: 4900
Heat Index: 49°   Visibility: 6mi
Dew Point: 48°   Wind: 6mph
Humidity: 97%   Direction: 310°NW
Pressure: 29.54"   Gusts: NA
Location:  43.23°N, 75.75°W
Report Text: KRME 260420Z AUTO 31005KT 6SM BR BKN049 OVC100 09/09 A2954 RMK AO2 LTG DSNT SE-SW RAE17 TSE00 P0002 T00940089
Loading
Personal Weather Stations






























Interactive Weather Map
Tropical Storm Tracking
New forecast layout! Learn more

10-Day Weather Forecast

Advertisements
Track Severe Weather on mobile